createdAt,value
2023-04-02T00:02:22.442Z,7.36
2023-04-02T00:05:30.737Z,7.30
2023-04-02T00:08:03.489Z,7.20
2023-04-02T00:10:38.706Z,7.14
2023-04-02T00:13:10.417Z,7.08
2023-04-02T00:15:41.562Z,7.01
2023-04-02T00:18:15.462Z,6.94
2023-04-02T00:20:57.457Z,6.88
2023-04-02T00:23:28.515Z,6.82
2023-04-02T00:25:57.192Z,6.78
2023-04-02T00:28:26.802Z,6.70
2023-04-02T00:31:00.164Z,6.64
2023-04-02T00:33:32.036Z,6.59
2023-04-02T00:36:00.866Z,6.53
2023-04-02T00:38:35.247Z,6.48
2023-04-02T00:41:06.860Z,6.44
2023-04-02T00:43:39.485Z,6.36
2023-04-02T00:46:14.981Z,6.28
2023-04-02T00:49:09.384Z,6.23
2023-04-02T00:51:45.094Z,6.19
2023-04-02T00:54:17.640Z,6.15
2023-04-02T00:56:49.278Z,6.09
2023-04-02T00:59:26.176Z,6.03
2023-04-02T01:02:19.785Z,5.98
2023-04-02T01:05:20.300Z,5.94
2023-04-02T01:08:08.728Z,5.89
2023-04-02T01:10:55.752Z,5.84
2023-04-02T01:13:40.638Z,5.83
2023-04-02T01:16:18.543Z,5.75
2023-04-02T01:19:04.094Z,5.68
2023-04-02T01:21:44.068Z,5.60
2023-04-02T01:24:14.288Z,5.55
2023-04-02T01:27:00.471Z,5.48
2023-04-02T01:29:38.363Z,5.44
2023-04-02T01:32:13.425Z,5.40
2023-04-02T01:34:46.712Z,5.35
2023-04-02T01:37:38.221Z,5.31
2023-04-02T01:40:21.954Z,5.24
2023-04-02T01:42:53.699Z,5.19
2023-04-02T01:45:23.922Z,5.20
2023-04-02T01:47:52.747Z,5.18
2023-04-02T01:50:37.505Z,5.15
2023-04-02T01:53:10.780Z,5.13
2023-04-02T01:55:52.884Z,5.14
2023-04-02T01:58:28.024Z,5.13
2023-04-02T02:01:07.466Z,5.11
2023-04-02T02:03:44.779Z,5.10
2023-04-02T02:06:16.862Z,5.10
2023-04-02T02:08:56.654Z,5.10
2023-04-02T02:11:29.278Z,5.11
2023-04-02T02:14:19.221Z,5.08
2023-04-02T02:16:49.675Z,5.06
2023-04-02T02:19:39.938Z,5.06
2023-04-02T02:22:35.449Z,5.06
2023-04-02T02:25:12.234Z,5.02
2023-04-02T02:27:52.843Z,4.98
2023-04-02T02:30:47.405Z,4.95
2023-04-02T02:33:29.230Z,4.93
2023-04-02T02:36:03.695Z,4.92
2023-04-02T02:39:17.456Z,4.91
2023-04-02T02:42:01.608Z,4.88
2023-04-02T02:44:35.302Z,4.83
2023-04-02T02:47:16.916Z,4.78
2023-04-02T02:49:50.178Z,4.74
2023-04-02T02:52:31.968Z,4.70
2023-04-02T02:55:15.815Z,4.65
2023-04-02T02:57:54.489Z,4.60
2023-04-02T03:00:24.945Z,4.55
2023-04-02T03:02:57.283Z,4.52
2023-04-02T03:05:29.423Z,4.49
2023-04-02T03:08:05.912Z,4.47
2023-04-02T03:10:39.581Z,4.44
2023-04-02T03:13:35.761Z,4.42
2023-04-02T03:16:16.826Z,4.38
2023-04-02T03:18:58.777Z,4.32
2023-04-02T03:21:38.216Z,4.29
2023-04-02T03:24:36.087Z,4.26
2023-04-02T03:27:07.742Z,4.22
2023-04-02T03:29:42.063Z,4.18
2023-04-02T03:32:22.822Z,4.17
2023-04-02T03:35:01.864Z,4.16
2023-04-02T03:37:33.200Z,4.14
2023-04-02T03:40:09.064Z,4.13
2023-04-02T03:42:53.722Z,4.08
2023-04-02T03:45:28.549Z,4.04
2023-04-02T03:48:05.977Z,4.04
2023-04-02T03:51:00.856Z,4.02
2023-04-02T03:53:32.337Z,4.01
2023-04-02T03:56:02.711Z,3.99
2023-04-02T03:58:42.356Z,3.97
2023-04-02T04:01:20.762Z,3.96
2023-04-02T04:03:53.579Z,3.95
2023-04-02T04:06:29.242Z,3.96
2023-04-02T04:09:07.421Z,3.96
2023-04-02T04:11:45.875Z,3.94
2023-04-02T04:14:20.646Z,3.91
2023-04-02T04:17:04.692Z,3.90
2023-04-02T04:19:49.699Z,3.91
2023-04-02T04:22:30.647Z,3.90
2023-04-02T04:25:08.506Z,3.86
2023-04-02T04:27:45.541Z,3.83
2023-04-02T04:30:18.604Z,3.84
2023-04-02T04:32:59.004Z,3.79
2023-04-02T04:35:57.255Z,3.69
2023-04-02T04:38:39.792Z,3.56
2023-04-02T04:41:27.127Z,3.48
2023-04-02T04:44:13.705Z,3.44
2023-04-02T04:46:47.428Z,3.40
2023-04-02T04:49:22.604Z,3.39
2023-04-02T04:51:54.700Z,3.39
2023-04-02T04:54:27.067Z,3.38
2023-04-02T04:57:01.432Z,3.37
2023-04-02T04:59:42.888Z,3.37
2023-04-02T05:02:27.025Z,3.37
2023-04-02T05:04:57.102Z,3.40
2023-04-02T05:07:28.495Z,3.42
2023-04-02T05:10:08.546Z,3.44
2023-04-02T05:13:11.134Z,3.46
2023-04-02T05:16:01.181Z,3.47
2023-04-02T05:18:49.477Z,3.48
2023-04-02T05:21:27.372Z,3.53
2023-04-02T05:24:25.153Z,3.56
2023-04-02T05:27:04.561Z,3.60
2023-04-02T05:29:39.302Z,3.65
2023-04-02T05:32:17.289Z,3.65
2023-04-02T05:34:51.838Z,3.68
2023-04-02T05:37:24.680Z,3.70
2023-04-02T05:39:57.305Z,3.72
2023-04-02T05:42:31.198Z,3.75
2023-04-02T05:45:19.727Z,3.78
2023-04-02T05:47:52.297Z,3.81
2023-04-02T05:50:27.371Z,3.82
2023-04-02T05:53:11.518Z,3.84
2023-04-02T05:56:03.960Z,3.86
2023-04-02T05:58:45.528Z,3.89
2023-04-02T06:01:37.645Z,3.90
2023-04-02T06:04:30.120Z,3.91
2023-04-02T06:07:02.894Z,3.93
2023-04-02T06:09:47.054Z,3.93
2023-04-02T06:12:24.947Z,3.95
2023-04-02T06:14:54.152Z,3.98
2023-04-02T06:17:24.221Z,3.98
2023-04-02T06:19:56.530Z,4.00
2023-04-02T06:22:46.906Z,4.01
2023-04-02T06:25:23.707Z,4.04
2023-04-02T06:27:56.964Z,4.04
2023-04-02T06:30:33.953Z,4.03
2023-04-02T06:33:04.029Z,4.02
2023-04-02T06:35:38.351Z,4.00
2023-04-02T06:38:17.815Z,3.99
2023-04-02T06:41:01.511Z,3.99
2023-04-02T06:44:01.824Z,4.01
2023-04-02T06:46:54.472Z,4.02
2023-04-02T06:49:33.507Z,3.99
2023-04-02T06:52:11.415Z,3.99
2023-04-02T06:54:40.354Z,3.99
2023-04-02T06:57:14.270Z,3.99
2023-04-02T06:59:45.471Z,4.01
2023-04-02T07:02:37.588Z,4.01
2023-04-02T07:05:11.826Z,4.03
2023-04-02T07:07:46.312Z,4.02
2023-04-02T07:10:16.038Z,4.03
2023-04-02T07:12:44.924Z,4.04
2023-04-02T07:15:17.852Z,3.99
2023-04-02T07:17:47.229Z,4.00
2023-04-02T07:20:37.898Z,4.01
2023-04-02T07:23:10.816Z,4.02
2023-04-02T07:25:40.399Z,4.01
2023-04-02T07:28:09.191Z,4.00
2023-04-02T07:30:38.095Z,4.00
2023-04-02T07:33:07.791Z,4.01
2023-04-02T07:35:37.170Z,4.02
2023-04-02T07:38:06.608Z,4.05
2023-04-02T07:40:36.009Z,4.04
2023-04-02T07:43:05.832Z,4.05
2023-04-02T07:45:36.609Z,4.05
2023-04-02T07:48:12.826Z,4.06
2023-04-02T07:50:43.274Z,4.07
2023-04-02T07:53:33.264Z,4.05
2023-04-02T07:56:08.815Z,4.02
2023-04-02T07:58:38.603Z,3.98
2023-04-02T08:01:20.631Z,3.96
2023-04-02T08:03:52.959Z,3.94
2023-04-02T08:06:25.289Z,3.92
2023-04-02T08:08:54.275Z,3.93
2023-04-02T08:11:23.225Z,3.92
2023-04-02T08:13:52.503Z,3.94
2023-04-02T08:16:21.767Z,3.91
2023-04-02T08:18:50.728Z,3.86
2023-04-02T08:21:19.788Z,3.84
2023-04-02T08:23:48.917Z,3.84
2023-04-02T08:26:19.724Z,3.85
2023-04-02T08:28:54.465Z,3.87
2023-04-02T08:31:24.052Z,3.85
2023-04-02T08:33:54.419Z,3.86
2023-04-02T08:36:31.252Z,3.86
2023-04-02T08:39:02.000Z,3.85
2023-04-02T08:41:51.063Z,3.85
2023-04-02T08:44:27.438Z,3.88
2023-04-02T08:47:08.778Z,3.86
2023-04-02T08:49:50.530Z,3.88
2023-04-02T08:52:24.962Z,3.91
2023-04-02T08:54:56.759Z,3.94
2023-04-02T08:57:51.459Z,4.01
2023-04-02T09:00:49.268Z,4.07
2023-04-02T09:03:39.719Z,4.17
2023-04-02T09:06:16.477Z,4.31
2023-04-02T09:08:48.168Z,4.41
2023-04-02T09:11:41.794Z,4.50
2023-04-02T09:14:20.757Z,4.59
2023-04-02T09:16:54.901Z,4.68
2023-04-02T09:19:31.877Z,4.72
2023-04-02T09:22:17.688Z,4.72
2023-04-02T09:24:52.438Z,4.71
2023-04-02T09:27:28.036Z,4.67
2023-04-02T09:30:04.180Z,4.69
2023-04-02T09:32:46.032Z,4.72
2023-04-02T09:35:25.346Z,4.76
2023-04-02T09:38:07.769Z,4.81
2023-04-02T09:40:59.200Z,4.83
2023-04-02T09:43:37.163Z,4.81
2023-04-02T09:46:32.386Z,4.82
2023-04-02T09:49:01.993Z,4.88
2023-04-02T09:51:34.493Z,4.95
2023-04-02T09:54:03.176Z,5.06
2023-04-02T09:56:39.700Z,5.12
2023-04-02T09:59:15.869Z,5.13
2023-04-02T10:01:53.667Z,5.16
2023-04-02T10:04:39.616Z,5.22
2023-04-02T10:07:30.575Z,5.17
2023-04-02T10:10:21.459Z,5.12
2023-04-02T10:12:57.939Z,5.12
2023-04-02T10:15:34.167Z,5.12
2023-04-02T10:18:15.280Z,5.08
2023-04-02T10:20:51.369Z,5.02
2023-04-02T10:23:24.526Z,4.94
2023-04-02T10:26:35.412Z,4.89
2023-04-02T10:29:25.915Z,4.82
2023-04-02T10:32:03.301Z,4.80
2023-04-02T10:34:43.454Z,4.78
2023-04-02T10:37:24.741Z,4.79
2023-04-02T10:40:21.063Z,4.81
2023-04-02T10:43:01.743Z,4.81
2023-04-02T10:45:57.865Z,4.79
2023-04-02T10:48:43.553Z,4.80
2023-04-02T10:51:24.530Z,4.83
2023-04-02T10:54:03.046Z,4.85
2023-04-02T10:56:44.137Z,4.87
2023-04-02T10:59:26.783Z,4.89
2023-04-02T11:02:00.903Z,4.96
2023-04-02T11:04:46.606Z,4.99
2023-04-02T11:07:21.418Z,5.00
2023-04-02T11:09:55.586Z,5.01
2023-04-02T11:12:43.918Z,5.02
2023-04-02T11:15:18.260Z,4.99
2023-04-02T11:17:48.655Z,5.02
2023-04-02T11:20:48.505Z,5.04
2023-04-02T11:23:20.469Z,5.07
2023-04-02T11:25:49.649Z,5.08
2023-04-02T11:28:29.432Z,5.07
2023-04-02T11:30:59.383Z,5.10
2023-04-02T11:33:38.200Z,5.15
2023-04-02T11:36:48.010Z,5.20
2023-04-02T11:39:54.252Z,5.19
2023-04-02T11:42:28.581Z,5.18
2023-04-02T11:45:01.905Z,5.15
2023-04-02T11:47:31.325Z,5.13
2023-04-02T11:50:02.450Z,5.13
2023-04-02T11:52:52.382Z,5.11
2023-04-02T11:55:25.500Z,5.11
2023-04-02T11:58:26.640Z,5.07
2023-04-02T12:01:16.845Z,5.04
2023-04-02T12:03:50.570Z,5.12
2023-04-02T12:06:40.622Z,5.14
2023-04-02T12:09:19.527Z,5.16
2023-04-02T12:11:51.646Z,5.22
2023-04-02T12:14:43.509Z,5.26
2023-04-02T12:17:37.865Z,5.29
2023-04-02T12:20:10.920Z,5.35
2023-04-02T12:22:50.177Z,5.39
2023-04-02T12:25:40.877Z,5.41
2023-04-02T12:28:10.413Z,5.44
2023-04-02T12:30:41.882Z,5.42
2023-04-02T12:33:21.628Z,5.39
2023-04-02T12:35:58.894Z,5.35
2023-04-02T12:38:35.627Z,5.31
2023-04-02T12:41:20.153Z,5.26
2023-04-02T12:43:58.906Z,5.21
2023-04-02T12:46:31.473Z,5.17
2023-04-02T12:49:17.631Z,5.14
2023-04-02T12:51:48.479Z,5.09
2023-04-02T12:54:20.181Z,5.07
2023-04-02T12:56:49.978Z,5.08
2023-04-02T12:59:36.477Z,5.09
2023-04-02T13:02:22.286Z,5.09
2023-04-02T13:05:02.711Z,5.09
2023-04-02T13:07:34.650Z,5.10
2023-04-02T13:10:25.963Z,5.12
2023-04-02T13:12:58.132Z,5.15
2023-04-02T13:15:36.975Z,5.17
2023-04-02T13:18:06.364Z,5.19
2023-04-02T13:20:39.997Z,5.19
2023-04-02T13:23:27.868Z,5.19
2023-04-02T13:26:00.912Z,5.19
2023-04-02T13:28:30.468Z,5.17
2023-04-02T13:31:00.164Z,5.17
2023-04-02T13:33:29.692Z,5.18
2023-04-02T13:35:58.759Z,5.19
2023-04-02T13:38:28.168Z,5.20
2023-04-02T13:40:57.982Z,5.20
2023-04-02T13:43:27.462Z,5.20
2023-04-02T13:46:00.614Z,5.23
2023-04-02T13:48:30.251Z,5.26
2023-04-02T13:50:59.681Z,5.28
2023-04-02T13:53:33.868Z,5.32
2023-04-02T13:56:03.340Z,5.32
2023-04-02T13:58:32.679Z,5.36
2023-04-02T14:01:02.444Z,5.40
2023-04-02T14:03:31.985Z,5.45
2023-04-02T14:06:13.376Z,5.50
2023-04-02T14:09:01.906Z,5.53
2023-04-02T14:11:45.869Z,5.55
2023-04-02T14:14:26.841Z,5.58
2023-04-02T14:17:21.151Z,5.61
2023-04-02T14:20:12.000Z,5.58
2023-04-02T14:23:14.226Z,5.57
2023-04-02T14:25:56.552Z,5.54
2023-04-02T14:28:58.089Z,5.52
2023-04-02T14:31:54.707Z,5.50
2023-04-02T14:34:33.072Z,5.51
2023-04-02T14:37:22.891Z,5.51
2023-04-02T14:40:21.595Z,5.49
2023-04-02T14:43:28.063Z,5.50
2023-04-02T14:46:00.773Z,5.51
2023-04-02T14:48:55.130Z,5.53
2023-04-02T14:52:04.414Z,5.53
2023-04-02T14:54:45.890Z,5.54
2023-04-02T14:57:31.234Z,5.53
2023-04-02T15:00:06.098Z,5.54
2023-04-02T15:02:47.282Z,5.53
2023-04-02T15:05:17.251Z,5.54
2023-04-02T15:07:58.354Z,5.56
2023-04-02T15:10:37.652Z,5.57
2023-04-02T15:13:15.938Z,5.59
2023-04-02T15:15:54.779Z,5.58
2023-04-02T15:18:25.962Z,5.58
2023-04-02T15:21:10.304Z,5.59
2023-04-02T15:23:57.948Z,5.59
2023-04-02T15:26:45.984Z,5.59
2023-04-02T15:29:30.435Z,5.60
2023-04-02T15:32:23.687Z,5.59
2023-04-02T15:35:17.561Z,5.59
2023-04-02T15:37:52.912Z,5.58
2023-04-02T15:40:34.704Z,5.59
2023-04-02T15:43:23.336Z,5.58
2023-04-02T15:46:10.793Z,5.59
2023-04-02T15:48:45.813Z,5.61
2023-04-02T15:51:36.718Z,5.61
2023-04-02T15:54:27.316Z,5.59
2023-04-02T15:57:25.474Z,5.58
2023-04-02T16:00:29.066Z,5.61
2023-04-02T16:03:28.300Z,5.61
2023-04-02T16:06:17.680Z,5.61
2023-04-02T16:09:16.479Z,5.59
2023-04-02T16:11:46.406Z,5.58
2023-04-02T16:14:28.684Z,5.56
2023-04-02T16:17:17.479Z,5.55
2023-04-02T16:20:24.545Z,5.56
2023-04-02T16:23:13.752Z,5.56
2023-04-02T16:26:26.747Z,5.56
2023-04-02T16:29:40.805Z,5.56
2023-04-02T16:32:57.732Z,5.57
2023-04-02T16:36:05.010Z,5.54
2023-04-02T16:38:47.517Z,5.53
2023-04-02T16:41:44.272Z,5.51
2023-04-02T16:44:38.161Z,5.51
2023-04-02T16:47:46.096Z,5.49
2023-04-02T16:50:35.342Z,5.46
2023-04-02T16:53:38.662Z,5.45
2023-04-02T16:56:25.402Z,5.45
2023-04-02T16:59:32.312Z,5.44
2023-04-02T17:02:21.157Z,5.41
2023-04-02T17:04:59.443Z,5.40
2023-04-02T17:07:31.844Z,5.42
2023-04-02T17:10:45.351Z,5.39
2023-04-02T17:13:30.156Z,5.34
2023-04-02T17:16:04.970Z,5.33
2023-04-02T17:18:34.715Z,5.32
2023-04-02T17:21:10.817Z,5.31
2023-04-02T17:23:56.355Z,5.30
2023-04-02T17:26:30.317Z,5.27
2023-04-02T17:29:04.445Z,5.29
2023-04-02T17:31:35.601Z,5.31
2023-04-02T17:34:15.338Z,5.31
2023-04-02T17:37:28.682Z,5.34
2023-04-02T17:40:21.664Z,5.35
2023-04-02T17:43:12.189Z,5.36
2023-04-02T17:45:56.943Z,5.36
2023-04-02T17:48:34.870Z,5.36
2023-04-02T17:51:24.284Z,5.34
2023-04-02T17:54:21.411Z,5.34
2023-04-02T17:57:12.439Z,5.35
2023-04-02T18:00:11.187Z,5.33
2023-04-02T18:03:11.633Z,5.31
2023-04-02T18:05:59.756Z,5.28
2023-04-02T18:08:34.700Z,5.28
2023-04-02T18:11:12.306Z,5.25
2023-04-02T18:14:00.867Z,5.22
2023-04-02T18:16:50.463Z,5.19
2023-04-02T18:19:49.488Z,5.18
2023-04-02T18:22:44.879Z,5.17
2023-04-02T18:25:25.201Z,5.15
2023-04-02T18:28:21.650Z,5.14
2023-04-02T18:30:55.152Z,5.12
2023-04-02T18:34:04.179Z,5.11
2023-04-02T18:36:49.115Z,5.10
2023-04-02T18:39:24.451Z,5.09
2023-04-02T18:42:03.080Z,5.07
2023-04-02T18:44:52.220Z,5.07
2023-04-02T18:47:50.663Z,5.05
2023-04-02T18:50:39.369Z,5.04
2023-04-02T18:53:19.457Z,5.03
2023-04-02T18:56:12.047Z,5.02
2023-04-02T18:59:05.541Z,5.00
2023-04-02T19:04:21.673Z,4.99
2023-04-02T19:07:07.283Z,4.98
2023-04-02T19:09:41.924Z,4.97
2023-04-02T19:12:19.954Z,4.98
2023-04-02T19:14:52.526Z,4.97
2023-04-02T19:17:47.186Z,4.96
2023-04-02T19:20:45.645Z,4.96
2023-04-02T19:23:50.685Z,4.95
2023-04-02T19:26:30.631Z,4.95
2023-04-02T19:29:25.275Z,4.95
2023-04-02T19:32:06.294Z,4.97
2023-04-02T19:34:40.102Z,5.00
2023-04-02T19:37:42.486Z,4.99
2023-04-02T19:40:41.477Z,5.01
2023-04-02T19:43:12.670Z,5.05
2023-04-02T19:45:47.437Z,5.07
2023-04-02T19:48:21.707Z,5.09
2023-04-02T19:50:52.944Z,5.13
2023-04-02T19:53:22.670Z,5.16
2023-04-02T19:55:52.536Z,5.17
2023-04-02T19:58:34.125Z,5.19
2023-04-02T20:01:04.913Z,5.22
2023-04-02T20:03:35.323Z,5.24
2023-04-02T20:06:04.939Z,5.24
2023-04-02T20:08:36.328Z,5.25
2023-04-02T20:11:07.388Z,5.24
2023-04-02T20:13:37.814Z,5.23
2023-04-02T20:16:08.036Z,5.22
2023-04-02T20:18:37.753Z,5.21
2023-04-02T20:21:10.571Z,5.22
2023-04-02T20:23:39.420Z,5.20
2023-04-02T20:26:09.027Z,5.18
2023-04-02T20:28:38.358Z,5.17
2023-04-02T20:31:13.248Z,5.14
2023-04-02T20:33:44.857Z,5.12
2023-04-02T20:36:16.540Z,5.09
2023-04-02T20:38:46.180Z,5.07
2023-04-02T20:41:18.781Z,5.05
2023-04-02T20:43:48.711Z,5.05
2023-04-02T20:46:17.955Z,5.00
2023-04-02T20:48:47.329Z,4.95
2023-04-02T20:54:05.046Z,4.87
2023-04-02T20:56:34.935Z,4.80
2023-04-02T20:59:04.743Z,4.75
2023-04-02T21:01:33.700Z,4.72
2023-04-02T21:04:04.209Z,4.66
2023-04-02T21:06:36.747Z,4.61
2023-04-02T21:09:09.440Z,4.53
2023-04-02T21:11:38.536Z,4.44
2023-04-02T21:14:07.525Z,4.38
2023-04-02T21:16:37.666Z,4.33
2023-04-02T21:19:09.838Z,4.28
2023-04-02T21:21:41.881Z,4.24
2023-04-02T21:24:11.329Z,4.21
2023-04-02T21:26:41.958Z,4.22
2023-04-02T21:29:12.438Z,4.21
2023-04-02T21:31:42.514Z,4.16
2023-04-02T21:34:16.396Z,4.10
2023-04-02T21:36:47.302Z,4.04
2023-04-02T21:39:24.525Z,4.00
2023-04-02T21:41:54.080Z,3.97
2023-04-02T21:44:24.927Z,3.94
2023-04-02T21:46:54.376Z,3.91
2023-04-02T21:49:24.353Z,3.90
2023-04-02T21:51:53.432Z,3.85
2023-04-02T21:54:22.883Z,3.82
2023-04-02T21:56:52.824Z,3.80
2023-04-02T21:59:22.255Z,3.75
2023-04-02T22:01:52.217Z,3.73
2023-04-02T22:04:23.642Z,3.69
2023-04-02T22:06:54.888Z,3.65
2023-04-02T22:09:25.414Z,3.61
2023-04-02T22:12:01.647Z,3.58
2023-04-02T22:14:32.241Z,3.56
2023-04-02T22:17:01.806Z,3.56
2023-04-02T22:19:30.801Z,3.52
2023-04-02T22:21:59.888Z,3.51
2023-04-02T22:24:28.969Z,3.47
2023-04-02T22:26:57.682Z,3.44
2023-04-02T22:29:26.354Z,3.41
2023-04-02T22:31:55.954Z,3.37
2023-04-02T22:34:24.436Z,3.33
2023-04-02T22:36:53.241Z,3.30
2023-04-02T22:39:22.110Z,3.26
2023-04-02T22:41:50.895Z,3.22
2023-04-02T22:44:19.385Z,3.18
2023-04-02T22:46:47.865Z,3.14
2023-04-02T22:49:19.631Z,3.10
2023-04-02T22:51:48.471Z,3.07
2023-04-02T22:54:17.406Z,3.01
2023-04-02T22:56:46.918Z,2.96
2023-04-02T22:59:15.806Z,2.91
2023-04-02T23:01:44.643Z,2.87
2023-04-02T23:04:13.284Z,2.80
2023-04-02T23:06:41.671Z,2.75
2023-04-02T23:09:10.539Z,2.67
2023-04-02T23:11:39.150Z,2.59
2023-04-02T23:14:07.534Z,2.52
2023-04-02T23:16:36.612Z,2.43
2023-04-02T23:19:05.095Z,2.37
2023-04-02T23:21:33.464Z,2.31
2023-04-02T23:24:02.180Z,2.27
2023-04-02T23:26:31.626Z,2.22
2023-04-02T23:29:01.071Z,2.18
2023-04-02T23:31:29.845Z,2.15
2023-04-02T23:33:58.853Z,2.12
2023-04-02T23:36:29.194Z,2.09
2023-04-02T23:39:01.625Z,2.05
2023-04-02T23:41:31.561Z,2.03
2023-04-02T23:44:00.669Z,2.01
2023-04-02T23:46:30.052Z,2.00
2023-04-02T23:48:59.565Z,1.99
2023-04-02T23:51:29.990Z,1.98
2023-04-02T23:53:58.677Z,1.96
2023-04-02T23:56:27.458Z,1.95
2023-04-02T23:58:56.464Z,1.91
